createdAt,value
2022-10-30T07:30:17.417Z,12.5
2022-10-30T07:31:33.654Z,12.4
2022-10-30T07:32:49.894Z,17.2
2022-10-30T07:34:06.103Z,18.7
2022-10-30T07:35:22.379Z,17.2
2022-10-30T07:36:38.581Z,17.4
2022-10-30T07:37:54.844Z,16
2022-10-30T07:39:11.069Z,14.3
2022-10-30T07:40:27.299Z,15
2022-10-30T07:41:43.539Z,16.2
2022-10-30T07:42:59.773Z,16.4
2022-10-30T07:44:16.028Z,16.1
2022-10-30T07:45:32.283Z,12.4
2022-10-30T07:46:48.494Z,18.3
2022-10-30T07:48:04.734Z,13.8
2022-10-30T07:49:20.967Z,14
2022-10-30T07:50:37.221Z,14.9
2022-10-30T07:51:53.452Z,13.8
2022-10-30T07:53:09.717Z,18.2
2022-10-30T07:54:25.925Z,14.7
2022-10-30T07:55:41.217Z,15.3
2022-10-30T07:56:56.434Z,13
2022-10-30T07:58:12.675Z,14.1
2022-10-30T07:59:28.918Z,16.1
2022-10-30T08:00:45.191Z,16
2022-10-30T08:02:01.391Z,12.4
2022-10-30T08:03:17.661Z,14
2022-10-30T08:04:33.878Z,16.1
2022-10-30T08:05:50.118Z,12.4
2022-10-30T08:07:06.345Z,17.5
2022-10-30T08:08:22.619Z,11.7
2022-10-30T08:09:38.839Z,13.5
2022-10-30T08:10:55.103Z,13.3
2022-10-30T08:12:11.319Z,15.6
2022-10-30T08:13:26.601Z,33.3
2022-10-30T08:14:42.811Z,11.7
2022-10-30T08:15:59.068Z,14.6
2022-10-30T08:17:15.280Z,14.6
2022-10-30T08:18:31.512Z,16.3
2022-10-30T08:19:47.762Z,17.1
2022-10-30T08:21:03.990Z,15
2022-10-30T08:22:19.249Z,17.2
2022-10-30T08:23:34.545Z,13.7
2022-10-30T08:24:49.775Z,14.9
2022-10-30T08:26:05.063Z,12.6
2022-10-30T08:27:21.272Z,29.8
2022-10-30T08:28:37.506Z,21.7
2022-10-30T08:29:53.742Z,17.2
2022-10-30T08:31:09.988Z,23.3
2022-10-30T08:32:26.233Z,12.3
2022-10-30T08:33:42.495Z,19
2022-10-30T08:34:58.698Z,13.8
2022-10-30T08:37:31.187Z,17.3
2022-10-30T08:38:47.411Z,17.7
2022-10-30T08:40:03.650Z,16.5
2022-10-30T08:41:19.888Z,17.3
2022-10-30T08:42:35.154Z,25.8
2022-10-30T08:43:51.401Z,15.9
2022-10-30T08:45:07.625Z,21
2022-10-30T08:46:23.898Z,21.4
2022-10-30T08:47:40.107Z,18.8
2022-10-30T08:48:56.340Z,17
2022-10-30T08:50:12.578Z,12.6
2022-10-30T08:51:28.846Z,12.9
2022-10-30T08:52:44.085Z,15.5
2022-10-30T08:54:00.483Z,13.7
2022-10-30T08:55:15.707Z,14.7
2022-10-30T08:56:30.957Z,14.6
2022-10-30T08:57:47.226Z,11.7
2022-10-30T08:59:03.467Z,15.7
2022-10-30T09:00:19.673Z,14.6
2022-10-30T09:01:35.911Z,12.2
2022-10-30T09:02:52.151Z,14.9
2022-10-30T09:04:08.421Z,14.7
2022-10-30T09:05:24.631Z,12
2022-10-30T09:06:40.897Z,22.6
2022-10-30T09:07:57.113Z,16.6
2022-10-30T09:09:13.391Z,13
2022-10-30T09:10:29.584Z,12.8
2022-10-30T09:11:45.825Z,15.4
2022-10-30T09:13:01.079Z,18.7
2022-10-30T09:14:17.355Z,15.2
2022-10-30T09:15:33.572Z,14.5
2022-10-30T09:16:49.799Z,16.5
2022-10-30T09:18:06.074Z,13.4
2022-10-30T09:19:22.312Z,15.2
2022-10-30T09:20:38.518Z,12.8
2022-10-30T09:21:53.795Z,16.7
2022-10-30T09:23:09.032Z,11.6
2022-10-30T09:24:25.282Z,10.9
2022-10-30T09:25:40.545Z,14.7
2022-10-30T09:26:56.900Z,12.9
2022-10-30T09:28:13.133Z,15.7
2022-10-30T09:29:29.403Z,15.6
2022-10-30T09:30:45.612Z,12.4
2022-10-30T09:32:01.866Z,15.3
2022-10-30T09:33:18.122Z,16.2
2022-10-30T09:34:34.378Z,14.9
2022-10-30T09:35:50.591Z,15.4
2022-10-30T09:37:06.811Z,14.7
2022-10-30T09:38:23.052Z,15.6
2022-10-30T09:39:39.301Z,13.2
2022-10-30T09:40:55.533Z,14.8
2022-10-30T09:42:11.793Z,15.6
2022-10-30T09:43:28.175Z,13.2
2022-10-30T09:44:44.381Z,11.9
2022-10-30T09:46:00.622Z,11.6
2022-10-30T09:47:16.887Z,12.6
2022-10-30T09:48:33.098Z,14.5
2022-10-30T09:49:49.364Z,13
2022-10-30T09:51:05.592Z,15.4
2022-10-30T09:52:20.868Z,16.3
2022-10-30T09:53:36.096Z,17.5
2022-10-30T09:54:52.364Z,16.6
2022-10-30T09:56:08.605Z,14.8
2022-10-30T09:57:24.857Z,14.1
2022-10-30T09:58:41.049Z,13.9
2022-10-30T09:59:57.299Z,15
2022-10-30T10:01:13.532Z,16.8
2022-10-30T10:02:29.800Z,14
2022-10-30T10:03:46.002Z,14.8
2022-10-30T10:05:02.241Z,16.9
2022-10-30T10:06:18.489Z,12.2
2022-10-30T10:07:34.714Z,11.6
2022-10-30T10:08:50.961Z,14
2022-10-30T10:10:06.209Z,17
2022-10-30T10:11:22.453Z,14.9
2022-10-30T10:12:38.722Z,12.6
2022-10-30T10:13:54.940Z,12
2022-10-30T10:15:11.192Z,13.6
2022-10-30T10:16:27.402Z,14.4
2022-10-30T10:17:43.679Z,13
2022-10-30T10:18:58.934Z,14.4
2022-10-30T10:20:14.187Z,13.3
2022-10-30T10:21:29.443Z,16.7
2022-10-30T10:22:44.677Z,16
2022-10-30T10:24:00.920Z,14.9
2022-10-30T10:25:17.181Z,12.4
2022-10-30T10:26:33.378Z,13.9
2022-10-30T10:27:49.629Z,13.5
2022-10-30T10:29:05.895Z,14.7
2022-10-30T10:30:22.138Z,11.2
2022-10-30T10:31:38.340Z,14.4
2022-10-30T10:32:54.613Z,13.2
2022-10-30T10:34:10.811Z,10.1
2022-10-30T10:35:27.082Z,14.9
2022-10-30T10:36:43.290Z,17.7
2022-10-30T10:37:59.526Z,15.2
2022-10-30T10:39:14.788Z,13.9
2022-10-30T10:40:31.053Z,15.9
2022-10-30T10:41:47.301Z,13
2022-10-30T10:43:03.539Z,12
2022-10-30T10:44:19.740Z,12.5
2022-10-30T10:45:35.982Z,14.6
2022-10-30T10:46:52.228Z,15.8
2022-10-30T10:48:07.488Z,15.1
2022-10-30T10:49:22.770Z,10.9
2022-10-30T10:50:38.968Z,14.1
2022-10-30T10:51:55.206Z,15.9
2022-10-30T10:53:11.481Z,13.1
2022-10-30T10:54:27.699Z,11.9
2022-10-30T10:55:43.960Z,14.3
2022-10-30T10:57:00.163Z,13.6
2022-10-30T10:58:16.421Z,12.2
2022-10-30T10:59:32.650Z,13.4
2022-10-30T11:00:48.884Z,14.9
2022-10-30T11:02:05.123Z,11.7
2022-10-30T11:03:21.374Z,12.1
2022-10-30T11:04:37.611Z,12.5
2022-10-30T11:05:52.863Z,12.1
2022-10-30T11:07:09.110Z,11.5
2022-10-30T11:08:25.336Z,15.4
2022-10-30T11:09:41.572Z,13.8
2022-10-30T11:10:57.831Z,13.6
2022-10-30T11:12:14.059Z,13.6
2022-10-30T11:13:30.290Z,11.9
2022-10-30T11:14:46.682Z,13
2022-10-30T11:16:03.042Z,11
2022-10-30T11:17:19.274Z,12.1
2022-10-30T11:18:35.509Z,12.8
2022-10-30T11:19:51.747Z,11.2
2022-10-30T11:21:07.988Z,10.6
2022-10-30T11:22:24.230Z,17.5
2022-10-30T11:23:40.473Z,12.2
2022-10-30T11:24:56.720Z,9.8
2022-10-30T11:26:12.943Z,14.2
2022-10-30T11:27:29.193Z,9.7
2022-10-30T11:28:45.425Z,13.4
2022-10-30T11:30:01.680Z,13.3
2022-10-30T11:31:17.904Z,12.1
2022-10-30T11:32:33.172Z,13.5
2022-10-30T11:33:49.407Z,13.8
2022-10-30T11:35:05.644Z,12.2
2022-10-30T11:36:21.885Z,11.9
2022-10-30T11:37:38.124Z,15
2022-10-30T11:38:54.367Z,14.1
2022-10-30T11:40:10.603Z,12
2022-10-30T11:41:25.865Z,15.3
2022-10-30T11:42:41.110Z,11
2022-10-30T11:43:57.359Z,14
2022-10-30T11:45:12.619Z,11.7
2022-10-30T11:46:28.853Z,11
2022-10-30T11:47:45.097Z,19.4
2022-10-30T11:49:01.330Z,13.8
2022-10-30T11:50:17.562Z,10.3
2022-10-30T11:51:33.809Z,11.9
2022-10-30T11:52:50.049Z,13.6
2022-10-30T11:54:06.298Z,15.5
2022-10-30T11:55:22.533Z,13.4
2022-10-30T11:56:38.760Z,17.1
2022-10-30T11:57:55.011Z,13
2022-10-30T12:00:27.486Z,15.5
2022-10-30T12:01:42.748Z,12.8
2022-10-30T12:02:58.979Z,15.6
2022-10-30T12:04:15.209Z,14.6
2022-10-30T12:05:31.454Z,15.3
2022-10-30T12:06:47.695Z,14.5
2022-10-30T12:08:03.943Z,14.2
2022-10-30T12:09:19.203Z,10
2022-10-30T12:10:34.446Z,12.1
2022-10-30T12:11:49.712Z,14.2
2022-10-30T12:13:04.967Z,12.1
2022-10-30T12:14:20.229Z,10.2
2022-10-30T12:15:35.489Z,12
2022-10-30T12:16:51.723Z,14.8
2022-10-30T12:18:07.964Z,14.2
2022-10-30T12:19:24.195Z,15
2022-10-30T12:20:40.450Z,12.9
2022-10-30T12:21:56.688Z,15
2022-10-30T12:23:12.925Z,13.4
2022-10-30T12:24:29.154Z,15.8
2022-10-30T12:25:45.405Z,12.6
2022-10-30T12:27:01.640Z,18.3
2022-10-30T12:28:17.868Z,13
2022-10-30T12:29:34.106Z,15.6
2022-10-30T12:30:50.358Z,13.8
2022-10-30T12:32:05.622Z,12.4
2022-10-30T12:33:21.844Z,15
2022-10-30T12:34:38.092Z,13.2
2022-10-30T12:35:54.335Z,11.3
2022-10-30T12:37:10.565Z,13
2022-10-30T12:38:26.804Z,11.3
2022-10-30T12:39:43.057Z,13.5
2022-10-30T12:40:58.297Z,10.3
2022-10-30T12:42:13.564Z,14.6
2022-10-30T12:43:28.828Z,13.2
2022-10-30T12:44:44.074Z,11.3
2022-10-30T12:45:59.336Z,13.4
2022-10-30T12:47:14.587Z,11.4
2022-10-30T12:48:30.841Z,13.7
2022-10-30T12:49:47.065Z,11.2
2022-10-30T12:51:03.318Z,10.9
2022-10-30T12:52:19.556Z,9.6
2022-10-30T12:53:35.788Z,11.1
2022-10-30T12:54:52.029Z,13.1
2022-10-30T12:56:08.277Z,14
2022-10-30T12:57:24.499Z,12.7
2022-10-30T12:58:40.738Z,18.9
2022-10-30T12:59:56.999Z,11.1
2022-10-30T13:01:13.230Z,18.4
2022-10-30T13:02:29.463Z,11.9
2022-10-30T13:03:44.726Z,13
2022-10-30T13:05:00.952Z,16.8
2022-10-30T13:06:17.204Z,14.1
2022-10-30T13:07:33.443Z,12.3
2022-10-30T13:08:49.677Z,9.7
2022-10-30T13:10:05.923Z,13.7
2022-10-30T13:11:22.147Z,16.9
2022-10-30T13:12:37.423Z,14.8
2022-10-30T13:13:52.673Z,13.6
2022-10-30T13:15:08.918Z,12
2022-10-30T13:16:25.145Z,10.9
2022-10-30T13:17:41.388Z,11.4
2022-10-30T13:18:57.626Z,11.6
2022-10-30T13:20:13.880Z,14.9
2022-10-30T13:21:30.121Z,9.4
2022-10-30T13:22:46.346Z,14.9
2022-10-30T13:24:02.588Z,13.4
2022-10-30T13:25:18.829Z,11.5
2022-10-30T13:26:35.061Z,15.6
2022-10-30T13:27:51.312Z,11.5
2022-10-30T13:29:07.544Z,14
2022-10-30T13:30:22.805Z,11.7
2022-10-30T13:31:39.041Z,15.8
2022-10-30T13:32:55.274Z,12.9
2022-10-30T13:34:11.510Z,14.7
2022-10-30T13:35:27.761Z,14.4
2022-10-30T13:36:44.008Z,16.6
2022-10-30T13:38:00.243Z,14.6
2022-10-30T13:39:15.495Z,12.9
2022-10-30T13:40:30.748Z,14.8
2022-10-30T13:41:46.991Z,12.7
2022-10-30T13:43:03.243Z,12.7
2022-10-30T13:44:19.475Z,14.5
2022-10-30T13:45:35.703Z,10.1
2022-10-30T13:46:51.948Z,15.2
2022-10-30T13:48:08.191Z,13.7
2022-10-30T13:49:24.437Z,15.9
2022-10-30T13:50:40.678Z,12.4
2022-10-30T13:51:56.902Z,11.5
2022-10-30T13:53:13.154Z,11.8
2022-10-30T13:54:29.395Z,12.3
2022-10-30T13:55:45.619Z,10.4
2022-10-30T13:57:00.892Z,14.4
2022-10-30T13:58:17.125Z,13.9
2022-10-30T13:59:33.366Z,13.7
2022-10-30T14:00:49.594Z,16.3
2022-10-30T14:02:05.847Z,11.2
2022-10-30T14:03:22.076Z,16.3
2022-10-30T14:04:38.326Z,15.5
2022-10-30T14:05:53.587Z,16
2022-10-30T14:07:08.848Z,13.1
2022-10-30T14:08:24.094Z,14.2
2022-10-30T14:09:39.357Z,15.2
2022-10-30T14:10:54.619Z,8.8
2022-10-30T14:12:09.879Z,12.4
2022-10-30T14:13:25.129Z,14.3
2022-10-30T14:14:40.379Z,11.6
2022-10-30T14:15:56.639Z,14.6
2022-10-30T14:17:12.863Z,11.6
2022-10-30T14:18:29.099Z,12.8
2022-10-30T14:19:45.356Z,16.8
2022-10-30T14:21:01.604Z,12
2022-10-30T14:22:17.820Z,12.9
2022-10-30T14:23:34.074Z,12.3
2022-10-30T14:24:50.295Z,13.2
2022-10-30T14:26:06.547Z,11.9
2022-10-30T14:27:22.785Z,12.3
2022-10-30T14:28:39.032Z,12.5
2022-10-30T14:29:55.262Z,18
2022-10-30T14:31:10.535Z,12.5
2022-10-30T14:32:26.756Z,14.9
2022-10-30T14:33:43.000Z,13.6
2022-10-30T14:34:59.246Z,13.9
2022-10-30T14:36:15.480Z,15.5
2022-10-30T14:37:31.711Z,10.7
2022-10-30T14:38:47.956Z,10.2
2022-10-30T14:40:03.209Z,13.9
2022-10-30T14:41:18.485Z,9.4
2022-10-30T14:42:34.704Z,12.6
2022-10-30T14:43:49.966Z,15.9
2022-10-30T14:45:05.231Z,12.3
2022-10-30T14:46:21.478Z,12.6
2022-10-30T14:47:37.700Z,11.8
2022-10-30T14:48:53.946Z,13.3
2022-10-30T14:50:10.188Z,15.5
2022-10-30T14:51:26.431Z,13.3
2022-10-30T14:52:42.677Z,11.1
2022-10-30T14:53:58.908Z,17.3
2022-10-30T14:55:15.138Z,21.6
2022-10-30T14:56:31.382Z,19.3
2022-10-30T14:57:47.629Z,20
2022-10-30T14:59:03.862Z,18.9
2022-10-30T15:00:20.099Z,16.9
2022-10-30T15:01:35.357Z,17.5
2022-10-30T15:02:51.590Z,13.5
2022-10-30T15:04:07.822Z,19.2
2022-10-30T15:05:24.072Z,15
2022-10-30T15:06:40.308Z,20.1
2022-10-30T15:07:56.547Z,17.5
2022-10-30T15:09:12.788Z,15.6
2022-10-30T15:10:28.053Z,17.3
2022-10-30T15:11:43.303Z,13.2
2022-10-30T15:12:59.540Z,18.7
2022-10-30T15:14:15.781Z,16.1
2022-10-30T15:15:32.018Z,14.2
2022-10-30T15:16:48.269Z,16.6
2022-10-30T15:18:04.483Z,14.9
2022-10-30T15:19:20.720Z,13.9
2022-10-30T15:20:36.977Z,11.7
2022-10-30T15:21:53.213Z,13.6
2022-10-30T15:23:09.439Z,9.6
2022-10-30T15:24:25.688Z,13
2022-10-30T15:25:41.931Z,13
2022-10-30T15:26:58.149Z,15.5
2022-10-30T15:28:13.404Z,10.6
2022-10-30T15:29:29.642Z,16.1
2022-10-30T15:30:45.880Z,13.6
2022-10-30T15:32:02.133Z,16.9
2022-10-30T15:33:18.370Z,14.6
2022-10-30T15:34:34.613Z,13.3
2022-10-30T15:35:50.837Z,13.5
2022-10-30T15:37:06.096Z,16.5
2022-10-30T15:38:21.367Z,15.7
2022-10-30T15:39:37.612Z,17.2
2022-10-30T15:40:53.827Z,14.6
2022-10-30T15:42:10.077Z,13.3
2022-10-30T15:43:26.317Z,16.8
2022-10-30T15:44:42.560Z,13.8
2022-10-30T15:45:58.795Z,17.2
2022-10-30T15:47:15.024Z,19.8
2022-10-30T15:48:31.258Z,18.7
2022-10-30T15:49:47.513Z,16.2
2022-10-30T15:51:03.740Z,19.5
2022-10-30T15:52:19.987Z,22.3
2022-10-30T15:53:36.209Z,23.5
2022-10-30T15:54:51.465Z,19.2
2022-10-30T15:56:07.708Z,20.7
2022-10-30T15:57:23.953Z,23.2
2022-10-30T15:58:40.180Z,18.9
2022-10-30T15:59:55.453Z,23.4
2022-10-30T16:01:11.681Z,19.8
2022-10-30T16:02:27.950Z,22.7
2022-10-30T16:03:43.191Z,18.1
2022-10-30T16:04:58.440Z,16.6
2022-10-30T16:06:14.675Z,16.7
2022-10-30T16:07:30.913Z,19.9
2022-10-30T16:08:47.162Z,16.5
2022-10-30T16:10:03.390Z,15.8
2022-10-30T16:11:19.628Z,19.3
2022-10-30T16:12:35.875Z,19.5
2022-10-30T16:13:52.111Z,17
2022-10-30T16:15:08.355Z,24.7
2022-10-30T16:16:24.602Z,25.3
2022-10-30T16:17:40.834Z,23.4
2022-10-30T16:18:57.127Z,23.5
2022-10-30T16:20:13.415Z,24.1
2022-10-30T16:21:28.675Z,42.6
2022-10-30T16:22:44.975Z,45.1
2022-10-30T16:24:01.263Z,36.8
2022-10-30T16:25:17.566Z,28.2
2022-10-30T16:26:33.853Z,23.4
2022-10-30T16:27:50.145Z,26
2022-10-30T16:30:22.724Z,21.5
2022-10-30T16:31:38.041Z,25
2022-10-30T16:32:53.363Z,22.9
2022-10-30T16:34:08.682Z,24.4
2022-10-30T16:35:23.991Z,21.1
2022-10-30T16:36:40.294Z,19.2
2022-10-30T16:37:56.565Z,19
2022-10-30T16:39:12.874Z,20.6
2022-10-30T16:40:29.166Z,19.7
2022-10-30T16:41:45.453Z,22.7
2022-10-30T16:43:01.751Z,23.5
2022-10-30T16:44:18.052Z,19.7
2022-10-30T16:45:34.332Z,20.7
2022-10-30T16:46:50.626Z,18.5
2022-10-30T16:48:06.940Z,17.6
2022-10-30T16:49:23.214Z,17.4
2022-10-30T16:50:39.522Z,17.1
2022-10-30T16:51:54.827Z,19.1
2022-10-30T16:53:11.129Z,21.6
2022-10-30T16:54:27.409Z,19.6
2022-10-30T16:55:43.702Z,21.8
2022-10-30T16:57:00.003Z,18
2022-10-30T16:58:16.292Z,19.6
2022-10-30T16:59:32.585Z,19
2022-10-30T17:00:47.919Z,17.8
2022-10-30T17:02:03.220Z,15.8
2022-10-30T17:03:19.511Z,17.8
2022-10-30T17:04:35.804Z,17
2022-10-30T17:05:52.112Z,16.7
2022-10-30T17:07:08.407Z,17.3
2022-10-30T17:08:24.686Z,18.3
2022-10-30T17:09:40.980Z,17.2
2022-10-30T17:10:57.285Z,19.8
2022-10-30T17:12:13.573Z,21.7
2022-10-30T17:13:29.861Z,16.4
2022-10-30T17:14:46.157Z,21.7
2022-10-30T17:16:02.467Z,30.1
2022-10-30T17:17:18.747Z,39.1
2022-10-30T17:18:34.070Z,59.6
2022-10-30T17:19:50.354Z,122.7
2022-10-30T17:21:06.670Z,153.6
2022-10-30T17:22:22.946Z,135
2022-10-30T17:23:39.245Z,115.6
2022-10-30T17:24:55.530Z,76.6
2022-10-30T17:26:11.841Z,77.8
2022-10-30T17:27:28.126Z,81.4
2022-10-30T17:28:44.424Z,98.3
2022-10-30T17:30:00.699Z,87.7
2022-10-30T17:31:17.014Z,68.7
2022-10-30T17:32:33.286Z,68.4
2022-10-30T17:33:49.587Z,75.2
2022-10-30T17:35:04.904Z,43.3
2022-10-30T17:36:21.000Z,31.9
2022-10-30T17:37:37.478Z,33.7
2022-10-30T17:38:53.770Z,27.9
2022-10-30T17:40:10.081Z,24.3
2022-10-30T17:41:26.376Z,21.6
2022-10-30T17:42:42.665Z,25
2022-10-30T17:43:58.950Z,24.5
2022-10-30T17:45:15.242Z,42.5
2022-10-30T17:46:31.537Z,51.5
2022-10-30T17:47:47.839Z,55.7
2022-10-30T17:49:04.122Z,45.8
2022-10-30T17:50:20.428Z,39.4
2022-10-30T17:51:35.741Z,40
2022-10-30T17:52:52.030Z,45.2
2022-10-30T17:54:08.309Z,29.5
2022-10-30T17:55:24.611Z,36
2022-10-30T17:56:40.904Z,28.7
2022-10-30T17:57:57.194Z,35.2
2022-10-30T17:59:13.502Z,35.5
2022-10-30T18:00:29.792Z,35.8
2022-10-30T18:01:46.085Z,38.8
2022-10-30T18:03:02.371Z,34.9
2022-10-30T18:04:18.680Z,43.2
2022-10-30T18:05:34.964Z,68.4
2022-10-30T18:06:51.247Z,64
2022-10-30T18:08:06.569Z,68.9
2022-10-30T18:09:22.873Z,70.9
2022-10-30T18:10:39.147Z,79.5
2022-10-30T18:11:55.432Z,103.8
2022-10-30T18:13:11.745Z,110
2022-10-30T18:14:28.032Z,98.6
2022-10-30T18:15:44.332Z,87.6
2022-10-30T18:17:00.607Z,86.3
2022-10-30T18:18:16.919Z,80
2022-10-30T18:19:33.213Z,87.9
2022-10-30T18:20:49.488Z,69.2
2022-10-30T18:22:05.782Z,67.9
2022-10-30T18:23:22.086Z,57.7
2022-10-30T18:24:37.400Z,76.9
2022-10-30T18:25:53.685Z,65.1
2022-10-30T18:27:09.972Z,69.2
2022-10-30T18:28:26.270Z,92.4
2022-10-30T18:29:42.583Z,90.5
2022-10-30T18:30:58.861Z,111.8
2022-10-30T18:32:15.140Z,116.2
2022-10-30T18:33:31.452Z,76.5
2022-10-30T18:34:47.729Z,93.3
2022-10-30T18:36:04.041Z,87.6
2022-10-30T18:37:20.337Z,94.1
2022-10-30T18:38:36.627Z,107.3
2022-10-30T18:39:52.912Z,79.4
2022-10-30T18:41:08.214Z,86.4
2022-10-30T18:42:24.539Z,85.8
2022-10-30T18:43:40.813Z,33.3
2022-10-30T18:44:57.097Z,54.3
2022-10-30T18:46:13.400Z,50.5
2022-10-30T18:47:29.699Z,54.2
2022-10-30T18:48:45.979Z,66.6
2022-10-30T18:50:02.269Z,39.4
2022-10-30T18:51:18.572Z,38
2022-10-30T18:52:34.868Z,29.7
2022-10-30T18:53:51.166Z,25.2
2022-10-30T18:55:07.446Z,29.8
2022-10-30T18:56:23.749Z,28
2022-10-30T18:57:39.047Z,21.4
2022-10-30T18:58:55.339Z,21.9
2022-10-30T19:00:11.637Z,23.7
2022-10-30T19:01:27.927Z,25.8
2022-10-30T19:02:44.243Z,25.2
2022-10-30T19:04:00.509Z,25.3
2022-10-30T19:05:16.803Z,29.3
2022-10-30T19:06:33.099Z,24.6
2022-10-30T19:07:49.418Z,20.4
2022-10-30T19:09:05.699Z,24.1
2022-10-30T19:10:22.000Z,22.2
2022-10-30T19:11:38.273Z,20.3
2022-10-30T19:12:54.588Z,21.6
2022-10-30T19:14:09.878Z,21.9
2022-10-30T19:15:26.163Z,24.1
2022-10-30T19:16:42.477Z,49.6
2022-10-30T19:17:58.770Z,40.7
2022-10-30T19:19:15.054Z,31.4
2022-10-30T19:20:31.367Z,29.6
2022-10-30T19:21:47.636Z,23.9
2022-10-30T19:23:03.947Z,36.7
2022-10-30T19:24:20.228Z,34
2022-10-30T19:25:36.542Z,58.4
2022-10-30T19:26:52.817Z,46.6
2022-10-30T19:28:09.110Z,44.4
2022-10-30T19:29:25.403Z,64.7
2022-10-30T19:30:40.709Z,61.6
2022-10-30T19:31:56.996Z,66.6
2022-10-30T19:33:13.308Z,56.5
2022-10-30T19:34:29.593Z,53.4
2022-10-30T19:35:45.877Z,61.6
2022-10-30T19:37:02.178Z,44.2
2022-10-30T19:38:18.485Z,45.9
2022-10-30T19:39:34.762Z,27.3
2022-10-30T19:40:51.076Z,30.1
2022-10-30T19:42:07.344Z,33.5
2022-10-30T19:43:23.640Z,26.3
2022-10-30T19:44:39.920Z,25.8
2022-10-30T19:45:56.221Z,22
2022-10-30T19:47:11.538Z,20
2022-10-30T19:48:27.844Z,22.1
2022-10-30T19:49:44.110Z,19.6
2022-10-30T19:51:00.409Z,21.2
2022-10-30T19:52:16.696Z,20.8
2022-10-30T19:53:33.010Z,22.6
2022-10-30T19:54:49.296Z,20.2
2022-10-30T19:56:05.591Z,21.4
2022-10-30T19:57:21.873Z,16.7
2022-10-30T19:58:38.182Z,20.4
2022-10-30T19:59:54.451Z,20
2022-10-30T20:01:10.767Z,21.8
2022-10-30T20:02:27.053Z,24.6
2022-10-30T20:03:42.385Z,21.1
2022-10-30T20:04:58.644Z,16.3
2022-10-30T20:06:14.953Z,20.7
2022-10-30T20:07:31.234Z,19.2
2022-10-30T20:08:47.529Z,19.6
2022-10-30T20:10:03.827Z,16.6
2022-10-30T20:11:20.105Z,19.1
2022-10-30T20:12:36.401Z,17
2022-10-30T20:13:52.724Z,20.4
2022-10-30T20:15:08.014Z,15.9
2022-10-30T20:16:24.329Z,21.2
2022-10-30T20:17:40.602Z,15.3
2022-10-30T20:18:56.916Z,18.5
2022-10-30T20:20:13.191Z,15.7
2022-10-30T20:21:29.478Z,19.3
2022-10-30T20:22:45.772Z,21.5
2022-10-30T20:24:02.090Z,20.5
2022-10-30T20:25:18.357Z,17
2022-10-30T20:26:34.663Z,17.9
2022-10-30T20:27:50.952Z,20.6
2022-10-30T20:29:07.230Z,22.1
2022-10-30T20:30:23.533Z,17.4
2022-10-30T20:31:38.860Z,17.9
2022-10-30T20:32:55.132Z,19.3
2022-10-30T20:34:11.428Z,21.4
2022-10-30T20:35:27.723Z,17.2
2022-10-30T20:36:44.000Z,19.3
2022-10-30T20:38:00.302Z,15.5
2022-10-30T20:39:16.620Z,17.2
2022-10-30T20:40:32.889Z,15.5
2022-10-30T20:41:49.200Z,17.4
2022-10-30T20:43:05.478Z,20.6
2022-10-30T20:44:21.794Z,19.9
2022-10-30T20:45:38.062Z,19
2022-10-30T20:46:54.360Z,20
2022-10-30T20:48:09.671Z,24.2
2022-10-30T20:49:25.953Z,92.3
2022-10-30T20:50:42.253Z,76.8
2022-10-30T20:51:58.556Z,83.2
2022-10-30T20:53:14.833Z,45
2022-10-30T20:54:31.142Z,36.2
2022-10-30T20:55:47.412Z,20.5
2022-10-30T20:57:03.707Z,20.3
2022-10-30T20:58:19.999Z,21.1
2022-10-30T20:59:36.304Z,18.8
2022-10-30T21:00:52.592Z,19.2
2022-10-30T21:02:08.915Z,19.7
2022-10-30T21:03:25.175Z,16.1
2022-10-30T21:04:40.488Z,21.1
2022-10-30T21:05:56.783Z,19.2
2022-10-30T21:07:13.063Z,16.9
2022-10-30T21:08:29.371Z,17.6
2022-10-30T21:09:45.648Z,19.6
2022-10-30T21:11:01.944Z,22.8
2022-10-30T21:12:18.234Z,19.2
2022-10-30T21:13:34.534Z,20.6
2022-10-30T21:14:50.824Z,20.8
2022-10-30T21:16:07.123Z,21.9
2022-10-30T21:17:23.408Z,17
2022-10-30T21:18:39.712Z,17.7
2022-10-30T21:19:55.999Z,15
2022-10-30T21:21:11.299Z,17
2022-10-30T21:22:27.622Z,14.8
2022-10-30T21:23:43.888Z,17.8
2022-10-30T21:25:00.178Z,16.4
2022-10-30T21:26:16.489Z,18.3
2022-10-30T21:27:32.805Z,18.3
2022-10-30T21:28:49.075Z,20.7
2022-10-30T21:30:05.377Z,17.1
2022-10-30T21:31:21.660Z,19.6
2022-10-30T21:32:37.955Z,17.9
2022-10-30T21:33:54.000Z,19.7
2022-10-30T21:35:10.528Z,20.9
2022-10-30T21:36:26.815Z,18.6
2022-10-30T21:37:42.141Z,17.8
2022-10-30T21:38:58.420Z,16.4
2022-10-30T21:40:14.709Z,20.4
2022-10-30T21:41:31.013Z,17.7
2022-10-30T21:42:47.306Z,16.9
2022-10-30T21:44:03.586Z,16.2
2022-10-30T21:45:19.882Z,16.5
2022-10-30T21:46:36.180Z,17.3
2022-10-30T21:47:52.472Z,17.8
2022-10-30T21:49:08.768Z,18.9
2022-10-30T21:50:25.054Z,20.8
2022-10-30T21:51:41.359Z,16.1
2022-10-30T21:52:57.659Z,19.1
2022-10-30T21:54:12.958Z,15.5
2022-10-30T21:55:29.265Z,16
2022-10-30T21:56:45.539Z,13.7
2022-10-30T21:58:01.834Z,15.4
2022-10-30T21:59:18.123Z,19.2
2022-10-30T22:00:34.425Z,19.5
2022-10-30T22:01:50.710Z,17.8
2022-10-30T22:03:06.996Z,15.7
2022-10-30T22:04:23.292Z,14.4
2022-10-30T22:05:39.585Z,19.8
2022-10-30T22:06:55.885Z,15.4
2022-10-30T22:08:12.173Z,18.2
2022-10-30T22:09:28.469Z,16.5
2022-10-30T22:10:43.805Z,17.3
2022-10-30T22:12:00.072Z,17
2022-10-30T22:13:16.373Z,19.8
2022-10-30T22:14:32.656Z,17.5
2022-10-30T22:15:48.952Z,17.1
2022-10-30T22:17:05.245Z,15.5
2022-10-30T22:18:21.526Z,16.1
2022-10-30T22:19:37.827Z,16.2
2022-10-30T22:20:54.120Z,15.6
2022-10-30T22:22:10.425Z,16.1
2022-10-30T22:23:26.697Z,17.1
2022-10-30T22:24:42.998Z,19.3
2022-10-30T22:25:59.289Z,16.2
2022-10-30T22:27:14.602Z,18.7
2022-10-30T22:28:30.881Z,19.5
2022-10-30T22:29:47.193Z,18.5
2022-10-30T22:31:03.479Z,18.2
2022-10-30T22:32:19.764Z,18.2
2022-10-30T22:33:36.062Z,17.4
2022-10-30T22:34:52.359Z,19.3
2022-10-30T22:36:08.676Z,16.3
2022-10-30T22:37:24.944Z,15
2022-10-30T22:38:41.263Z,16.2
2022-10-30T22:39:57.527Z,17.7
2022-10-30T22:41:13.811Z,21.1
2022-10-30T22:42:30.101Z,16.6
2022-10-30T22:43:45.420Z,16.2
2022-10-30T22:45:01.715Z,15.8
2022-10-30T22:46:18.004Z,17.1
2022-10-30T22:47:34.297Z,16.5
2022-10-30T22:48:50.605Z,16.4
2022-10-30T22:50:06.881Z,21.6
2022-10-30T22:51:23.174Z,15.6
2022-10-30T22:52:39.469Z,19.3
2022-10-30T22:53:55.773Z,17.2
2022-10-30T22:55:12.049Z,14.6
2022-10-30T22:56:28.366Z,18.1
2022-10-30T22:57:44.650Z,17.2
2022-10-30T22:59:00.954Z,16.1
2022-10-30T23:00:16.250Z,15.3
2022-10-30T23:01:32.541Z,14.3
2022-10-30T23:02:48.824Z,16.4
2022-10-30T23:04:05.113Z,15.8
2022-10-30T23:05:21.422Z,13.7
2022-10-30T23:06:37.698Z,20.5
2022-10-30T23:07:54.009Z,16.1
2022-10-30T23:09:10.284Z,14.9
2022-10-30T23:10:26.604Z,20.6
2022-10-30T23:11:42.896Z,16.2
2022-10-30T23:12:59.175Z,18.5
2022-10-30T23:14:15.486Z,16.4
2022-10-30T23:15:31.747Z,15.7
2022-10-30T23:16:47.068Z,15
2022-10-30T23:18:03.366Z,16.4
2022-10-30T23:19:19.661Z,15.9
2022-10-30T23:20:35.941Z,20.2
2022-10-30T23:21:52.262Z,14.7
2022-10-30T23:23:08.527Z,15.8
2022-10-30T23:24:24.848Z,16.7
2022-10-30T23:25:41.107Z,18.6
2022-10-30T23:26:57.400Z,13.7
2022-10-30T23:28:13.708Z,14.2
2022-10-30T23:29:29.992Z,17.5
2022-10-30T23:30:46.294Z,13.2
2022-10-30T23:32:02.569Z,17.1
2022-10-30T23:33:17.883Z,18
2022-10-30T23:34:34.200Z,14.5
2022-10-30T23:35:50.478Z,15.4
2022-10-30T23:37:06.781Z,17.2
2022-10-30T23:38:23.049Z,15.7
2022-10-30T23:39:39.353Z,13.6
2022-10-30T23:40:55.638Z,13.7
2022-10-30T23:42:11.943Z,16
2022-10-30T23:43:28.230Z,14.6
2022-10-30T23:44:44.524Z,13.5
2022-10-30T23:46:00.806Z,15.9
2022-10-30T23:47:17.114Z,15.5
2022-10-30T23:48:33.390Z,13.8
2022-10-30T23:49:48.709Z,14.2
2022-10-30T23:51:05.031Z,11.8
2022-10-30T23:52:21.330Z,14.8
2022-10-30T23:53:37.592Z,12
2022-10-30T23:54:53.880Z,14.9
2022-10-30T23:56:10.170Z,16.3
2022-10-30T23:57:26.471Z,13.6
2022-10-30T23:58:42.765Z,13.9
2022-10-30T23:59:59.076Z,17.9
